createdAt,value
2023-05-18T00:00:01.154Z,78.0
2023-05-18T00:05:01.210Z,81.2
2023-05-18T00:10:01.270Z,79.6
2023-05-18T00:15:01.210Z,77.2
2023-05-18T00:25:01.172Z,74.2
2023-05-18T00:30:01.207Z,57.8
2023-05-18T00:35:01.255Z,50.6
2023-05-18T00:40:01.166Z,42.7
2023-05-18T00:45:01.229Z,36.0
2023-05-18T00:50:01.170Z,29.1
2023-05-18T01:00:01.217Z,45.2
2023-05-18T01:05:01.282Z,54.3
2023-05-18T01:10:01.175Z,67.7
2023-05-18T01:15:01.216Z,65.3
2023-05-18T01:20:01.150Z,78.2
2023-05-18T01:25:01.220Z,80.6
2023-05-18T01:30:01.175Z,77.4
2023-05-18T01:35:01.290Z,76.7
2023-05-18T01:40:01.145Z,90.4
2023-05-18T01:45:01.275Z,90.5
2023-05-18T01:50:01.233Z,90.6
2023-05-18T01:55:01.212Z,94.0
2023-05-18T02:00:01.153Z,95.3
2023-05-18T02:05:01.286Z,95.6
2023-05-18T02:10:01.188Z,97.1
2023-05-18T02:20:01.242Z,99.2
2023-05-18T02:25:01.246Z,81.4
2023-05-18T02:30:01.196Z,79.7
2023-05-18T02:35:01.230Z,80.8
2023-05-18T02:40:01.166Z,81.4
2023-05-18T02:50:01.230Z,81.8
2023-05-18T02:55:01.288Z,99.3
2023-05-18T03:00:01.156Z,101.6
2023-05-18T03:05:01.215Z,101.5
2023-05-18T03:10:01.200Z,91.9
2023-05-18T03:20:01.220Z,99.2
2023-05-18T03:25:01.293Z,117.8
2023-05-18T03:30:01.178Z,133.4
2023-05-18T03:35:01.240Z,149.1
2023-05-18T03:45:01.179Z,171.4
2023-05-18T03:50:01.173Z,177.8
2023-05-18T03:55:01.263Z,160.9
2023-05-18T04:00:06.143Z,155.9
2023-05-18T04:05:01.281Z,145.6
2023-05-18T04:10:01.181Z,140.0
2023-05-18T04:15:01.210Z,129.7
2023-05-18T04:20:01.161Z,128.5
2023-05-18T04:25:01.298Z,116.9
2023-05-18T04:30:01.175Z,111.8
2023-05-18T04:35:01.224Z,103.4
2023-05-18T04:40:01.116Z,98.4
2023-05-18T04:45:01.134Z,99.3
2023-05-18T04:50:01.181Z,101.5
2023-05-18T05:00:01.256Z,98.6
2023-05-18T05:05:01.277Z,90.4
2023-05-18T05:10:01.178Z,81.2
2023-05-18T05:15:01.267Z,75.6
2023-05-18T05:20:01.137Z,69.5
2023-05-18T05:25:01.202Z,66.9
2023-05-18T05:30:01.216Z,72.8
2023-05-18T05:35:02.308Z,73.8
2023-05-18T05:45:01.220Z,70.6
2023-05-18T05:50:01.195Z,55.6
2023-05-18T05:55:01.207Z,49.1
2023-05-18T06:00:01.150Z,33.4
2023-05-18T06:05:01.204Z,35.6
2023-05-18T06:10:01.316Z,35.9
2023-05-18T06:20:01.208Z,40.2
2023-05-18T06:25:01.244Z,39.2
2023-05-18T06:30:01.247Z,39.7
2023-05-18T06:35:01.261Z,25.9
2023-05-18T06:40:01.160Z,14.9
2023-05-18T06:45:01.311Z,14.1
2023-05-18T06:50:01.181Z,7.4
2023-05-18T07:00:01.223Z,6.4
2023-05-18T07:05:01.207Z,8.6
2023-05-18T07:10:01.185Z,8.2
2023-05-18T07:15:01.179Z,5.3
2023-05-18T07:20:01.148Z,18.6
2023-05-18T07:25:01.272Z,17.3
2023-05-18T07:30:01.150Z,16.2
2023-05-18T07:35:01.322Z,18.8
2023-05-18T07:40:01.163Z,33.4
2023-05-18T07:45:01.217Z,25.1
2023-05-18T07:55:01.216Z,45.3
2023-05-18T08:00:01.115Z,59.5
2023-05-18T08:05:01.182Z,63.9
2023-05-18T08:10:01.147Z,66.8
2023-05-18T08:15:01.604Z,84.2
2023-05-18T08:20:01.125Z,73.7
2023-05-18T08:25:01.218Z,77.5
2023-05-18T08:30:01.188Z,70.7
2023-05-18T08:35:01.270Z,77.0
2023-05-18T08:40:01.161Z,61.1
2023-05-18T08:45:01.275Z,57.5
2023-05-18T08:50:01.162Z,42.5
2023-05-18T08:55:01.245Z,51.5
2023-05-18T09:05:01.317Z,34.2
2023-05-18T09:10:01.155Z,39.4
2023-05-18T09:15:01.307Z,35.1
2023-05-18T09:20:01.164Z,35.0
2023-05-18T09:25:01.216Z,29.6
2023-05-18T09:30:01.166Z,43.5
2023-05-18T09:35:01.269Z,33.7
2023-05-18T09:40:01.139Z,48.0
2023-05-18T09:45:01.285Z,58.7
2023-05-18T09:50:01.150Z,70.0
2023-05-18T09:55:01.330Z,60.4
2023-05-18T10:00:01.148Z,73.8
2023-05-18T10:10:01.286Z,73.6
2023-05-18T10:15:01.310Z,75.7
2023-05-18T10:20:01.160Z,77.7
2023-05-18T10:25:01.292Z,80.6
2023-05-18T10:30:01.155Z,82.6
2023-05-18T10:35:01.250Z,84.1
2023-05-18T10:40:01.159Z,82.6
2023-05-18T10:45:01.225Z,81.4
2023-05-18T10:55:01.229Z,83.7
2023-05-18T11:00:01.164Z,82.9
2023-05-18T11:05:01.242Z,82.6
2023-05-18T11:10:01.154Z,86.0
2023-05-18T11:15:01.253Z,83.7
2023-05-18T11:20:01.192Z,81.8
2023-05-18T11:40:02.939Z,112.8
2023-05-18T12:00:01.317Z,136.8
2023-05-18T12:05:01.176Z,132.8
2023-05-18T12:15:01.173Z,133.4
2023-05-18T12:20:01.121Z,133.2
2023-05-18T12:25:01.163Z,132.3
2023-05-18T12:30:01.111Z,131.2
2023-05-18T12:35:01.147Z,128.7
2023-05-18T12:40:01.121Z,128.8
2023-05-18T12:45:01.140Z,127.4
2023-05-18T12:50:01.074Z,125.7
2023-05-18T12:55:01.146Z,124.9
2023-05-18T13:00:01.100Z,124.9
2023-05-18T13:05:01.212Z,122.4
2023-05-18T13:10:01.096Z,123.9
2023-05-18T13:15:01.205Z,127.8
2023-05-18T13:20:01.132Z,130.3
2023-05-18T13:25:01.142Z,132.6
2023-05-18T13:30:01.073Z,128.8
2023-05-18T13:35:01.139Z,123.0
2023-05-18T13:40:01.168Z,116.2
2023-05-18T13:45:01.158Z,113.7
2023-05-18T13:50:01.088Z,110.8
2023-05-18T14:10:01.404Z,121.0
2023-05-18T14:15:01.356Z,121.9
2023-05-18T14:20:01.309Z,125.6
2023-05-18T14:25:01.373Z,124.9
2023-05-18T14:30:01.324Z,122.4
2023-05-18T14:35:01.354Z,118.4
2023-05-18T14:40:01.317Z,118.2
2023-05-18T14:45:01.420Z,113.8
2023-05-18T14:50:01.304Z,112.0
2023-05-18T14:55:01.317Z,112.6
2023-05-18T15:00:01.275Z,116.8
2023-05-18T15:05:01.402Z,114.5
2023-05-18T15:10:01.374Z,114.4
2023-05-18T15:15:01.372Z,114.8
2023-05-18T15:20:01.291Z,114.4
2023-05-18T15:25:01.407Z,114.7
2023-05-18T15:30:01.352Z,116.1
2023-05-18T15:35:01.403Z,112.5
2023-05-18T15:40:01.325Z,109.8
2023-05-18T15:45:01.400Z,107.6
2023-05-18T15:50:06.248Z,99.5
2023-05-18T15:55:01.319Z,94.9
2023-05-18T16:00:01.449Z,95.8
2023-05-18T16:05:01.327Z,93.1
2023-05-18T16:10:01.293Z,91.8
2023-05-18T16:15:01.381Z,95.6
2023-05-18T16:20:03.460Z,96.3
2023-05-18T16:25:01.326Z,99.3
2023-05-18T16:30:01.257Z,101.4
2023-05-18T16:35:01.453Z,102.4
2023-05-18T16:40:01.289Z,106.8
2023-05-18T16:45:01.322Z,106.7
2023-05-18T16:50:01.379Z,105.7
2023-05-18T16:55:01.243Z,102.2
2023-05-18T17:00:01.240Z,98.7
2023-05-18T17:05:01.263Z,89.7
2023-05-18T17:10:01.349Z,85.9
2023-05-18T17:15:01.226Z,85.3
2023-05-18T17:20:01.151Z,84.4
2023-05-18T17:25:01.281Z,83.6
2023-05-18T17:30:01.183Z,83.3
2023-05-18T17:35:01.291Z,83.5
2023-05-18T17:40:01.147Z,78.4
2023-05-18T17:45:01.207Z,78.7
2023-05-18T17:50:01.172Z,78.8
2023-05-18T17:55:06.308Z,79.2
2023-05-18T18:00:01.151Z,78.6
2023-05-18T18:05:01.276Z,78.5
2023-05-18T18:10:01.224Z,77.9
2023-05-18T18:15:01.259Z,78.0
2023-05-18T18:20:01.131Z,77.9
2023-05-18T18:25:01.197Z,78.7
2023-05-18T18:30:01.194Z,79.4
2023-05-18T18:35:01.270Z,81.2
2023-05-18T18:45:01.282Z,82.2
2023-05-18T18:55:01.240Z,86.0
2023-05-18T19:00:01.138Z,91.9
2023-05-18T19:05:01.254Z,99.2
2023-05-18T19:10:01.126Z,105.6
2023-05-18T19:15:01.213Z,109.6
2023-05-18T19:20:02.280Z,113.5
2023-05-18T19:25:01.289Z,113.7
2023-05-18T19:30:02.682Z,114.2
2023-05-18T19:35:01.216Z,110.8
2023-05-18T19:40:01.116Z,112.0
2023-05-18T19:50:01.215Z,106.6
2023-05-18T19:55:01.279Z,98.9
2023-05-18T20:00:01.128Z,91.3
2023-05-18T20:05:01.243Z,87.7
2023-05-18T20:10:01.120Z,80.4
2023-05-18T20:15:01.301Z,77.1
2023-05-18T20:20:01.113Z,77.3
2023-05-18T20:25:01.189Z,75.2
2023-05-18T20:30:01.139Z,74.1
2023-05-18T20:40:01.209Z,75.0
2023-05-18T20:45:01.203Z,75.3
2023-05-18T20:50:01.118Z,75.0
2023-05-18T20:55:01.176Z,75.7
2023-05-18T21:00:01.147Z,77.3
2023-05-18T21:05:01.181Z,75.9
2023-05-18T21:10:01.154Z,75.6
2023-05-18T21:20:01.305Z,76.6
2023-05-18T21:25:01.206Z,77.6
2023-05-18T21:30:01.145Z,76.0
2023-05-18T21:35:01.238Z,76.8
2023-05-18T21:40:01.201Z,77.6
2023-05-18T21:45:01.217Z,77.4
2023-05-18T21:50:01.161Z,76.5
2023-05-18T21:55:01.236Z,76.8
2023-05-18T22:00:01.216Z,78.0
2023-05-18T22:10:01.234Z,80.1
2023-05-18T22:15:01.203Z,82.8
2023-05-18T22:20:01.283Z,82.6
2023-05-18T22:25:01.272Z,82.1
2023-05-18T22:30:01.142Z,80.7
2023-05-18T22:40:01.252Z,79.2
2023-05-18T22:45:01.181Z,77.7
2023-05-18T22:50:01.131Z,80.3
2023-05-18T22:55:01.261Z,83.0
2023-05-18T23:05:01.307Z,85.4
2023-05-18T23:10:01.150Z,87.9
2023-05-18T23:15:01.231Z,89.9
2023-05-18T23:20:06.170Z,112.0
2023-05-18T23:25:01.281Z,115.7
2023-05-18T23:30:01.146Z,116.2
2023-05-18T23:35:01.211Z,116.1
2023-05-18T23:40:01.416Z,114.7
2023-05-18T23:50:01.282Z,93.5
2023-05-18T23:55:02.177Z,89.3
